sensor_id;sensor_type;location;lat;lon;timestamp;P1;durP1;ratioP1;P2;durP2;ratioP2
50291;SDS011;36190;54.980;73.388;2023-05-10T00:01:24;33.08;;;22.38;;
50291;SDS011;36190;54.980;73.388;2023-05-10T00:03:54;34.15;;;21.90;;
50291;SDS011;36190;54.980;73.388;2023-05-10T00:06:21;33.08;;;22.08;;
50291;SDS011;36190;54.980;73.388;2023-05-10T00:08:48;33.85;;;23.83;;
50291;SDS011;36190;54.980;73.388;2023-05-10T00:11:16;38.70;;;21.92;;
50291;SDS011;36190;54.980;73.388;2023-05-10T00:13:43;33.03;;;21.95;;
50291;SDS011;36190;54.980;73.388;2023-05-10T00:16:11;35.63;;;22.85;;
50291;SDS011;36190;54.980;73.388;2023-05-10T00:18:38;36.42;;;22.90;;
50291;SDS011;36190;54.980;73.388;2023-05-10T00:21:08;38.83;;;22.42;;
50291;SDS011;36190;54.980;73.388;2023-05-10T00:23:35;35.30;;;23.55;;
50291;SDS011;36190;54.980;73.388;2023-05-10T00:26:03;33.88;;;22.75;;
50291;SDS011;36190;54.980;73.388;2023-05-10T00:28:30;38.05;;;23.80;;
50291;SDS011;36190;54.980;73.388;2023-05-10T00:30:58;37.13;;;23.80;;
50291;SDS011;36190;54.980;73.388;2023-05-10T00:33:25;37.13;;;23.58;;
50291;SDS011;36190;54.980;73.388;2023-05-10T00:35:53;39.25;;;24.98;;
50291;SDS011;36190;54.980;73.388;2023-05-10T00:38:22;39.85;;;24.35;;
50291;SDS011;36190;54.980;73.388;2023-05-10T00:40:49;38.45;;;23.88;;
50291;SDS011;36190;54.980;73.388;2023-05-10T00:43:17;39.78;;;23.42;;
50291;SDS011;36190;54.980;73.388;2023-05-10T00:45:44;37.05;;;23.40;;
50291;SDS011;36190;54.980;73.388;2023-05-10T00:48:12;39.28;;;22.70;;
50291;SDS011;36190;54.980;73.388;2023-05-10T00:50:40;40.47;;;22.55;;
50291;SDS011;36190;54.980;73.388;2023-05-10T00:53:07;38.33;;;22.73;;
50291;SDS011;36190;54.980;73.388;2023-05-10T00:55:37;37.42;;;21.65;;
50291;SDS011;36190;54.980;73.388;2023-05-10T00:58:05;38.85;;;21.25;;
50291;SDS011;36190;54.980;73.388;2023-05-10T01:00:33;38.03;;;21.35;;
50291;SDS011;36190;54.980;73.388;2023-05-10T01:03:01;33.53;;;20.25;;
50291;SDS011;36190;54.980;73.388;2023-05-10T01:05:29;33.80;;;19.90;;
50291;SDS011;36190;54.980;73.388;2023-05-10T01:07:57;39.80;;;18.48;;
50291;SDS011;36190;54.980;73.388;2023-05-10T01:10:24;28.75;;;16.52;;
50291;SDS011;36190;54.980;73.388;2023-05-10T01:12:54;29.52;;;17.30;;
50291;SDS011;36190;54.980;73.388;2023-05-10T01:15:22;28.45;;;17.88;;
50291;SDS011;36190;54.980;73.388;2023-05-10T01:17:50;27.55;;;16.92;;
50291;SDS011;36190;54.980;73.388;2023-05-10T01:20:19;27.35;;;15.93;;
50291;SDS011;36190;54.980;73.388;2023-05-10T01:23:02;31.55;;;17.83;;
50291;SDS011;36190;54.980;73.388;2023-05-10T01:32:01;44.22;;;20.13;;
50291;SDS011;36190;54.980;73.388;2023-05-10T01:34:49;28.77;;;17.52;;
50291;SDS011;36190;54.980;73.388;2023-05-10T01:37:23;32.88;;;18.25;;
50291;SDS011;36190;54.980;73.388;2023-05-10T01:39:58;38.90;;;22.13;;
50291;SDS011;36190;54.980;73.388;2023-05-10T01:42:31;38.83;;;21.83;;
50291;SDS011;36190;54.980;73.388;2023-05-10T01:45:09;35.90;;;20.77;;
50291;SDS011;36190;54.980;73.388;2023-05-10T01:47:44;42.20;;;21.88;;
50291;SDS011;36190;54.980;73.388;2023-05-10T01:52:47;35.45;;;21.83;;
50291;SDS011;36190;54.980;73.388;2023-05-10T01:55:21;37.53;;;22.08;;
50291;SDS011;36190;54.980;73.388;2023-05-10T01:57:52;34.95;;;21.13;;
50291;SDS011;36190;54.980;73.388;2023-05-10T02:00:25;35.83;;;21.88;;
50291;SDS011;36190;54.980;73.388;2023-05-10T02:02:55;40.33;;;22.45;;
50291;SDS011;36190;54.980;73.388;2023-05-10T02:05:23;45.20;;;23.08;;
50291;SDS011;36190;54.980;73.388;2023-05-10T02:07:52;31.95;;;19.63;;
50291;SDS011;36190;54.980;73.388;2023-05-10T02:10:20;36.63;;;20.75;;
50291;SDS011;36190;54.980;73.388;2023-05-10T02:12:48;30.85;;;19.83;;
50291;SDS011;36190;54.980;73.388;2023-05-10T02:15:18;38.97;;;21.77;;
50291;SDS011;36190;54.980;73.388;2023-05-10T02:17:49;34.20;;;20.05;;
50291;SDS011;36190;54.980;73.388;2023-05-10T02:20:20;34.55;;;20.20;;
50291;SDS011;36190;54.980;73.388;2023-05-10T02:22:50;38.85;;;19.27;;
50291;SDS011;36190;54.980;73.388;2023-05-10T02:25:19;34.60;;;20.23;;
50291;SDS011;36190;54.980;73.388;2023-05-10T02:27:49;33.47;;;19.92;;
50291;SDS011;36190;54.980;73.388;2023-05-10T02:30:19;34.53;;;19.40;;
50291;SDS011;36190;54.980;73.388;2023-05-10T02:32:48;38.65;;;19.92;;
50291;SDS011;36190;54.980;73.388;2023-05-10T02:35:16;35.53;;;20.17;;
50291;SDS011;36190;54.980;73.388;2023-05-10T02:37:46;32.28;;;20.10;;
50291;SDS011;36190;54.980;73.388;2023-05-10T02:40:15;33.50;;;19.77;;
50291;SDS011;36190;54.980;73.388;2023-05-10T02:42:43;32.55;;;20.60;;
50291;SDS011;36190;54.980;73.388;2023-05-10T02:45:14;45.72;;;25.92;;
50291;SDS011;36190;54.980;73.388;2023-05-10T02:47:46;34.42;;;20.65;;
50291;SDS011;36190;54.980;73.388;2023-05-10T02:50:13;32.53;;;19.33;;
50291;SDS011;36190;54.980;73.388;2023-05-10T02:52:42;31.25;;;18.35;;
50291;SDS011;36190;54.980;73.388;2023-05-10T02:55:15;31.38;;;18.58;;
50291;SDS011;36190;54.980;73.388;2023-05-10T02:57:48;28.10;;;18.52;;
50291;SDS011;36190;54.980;73.388;2023-05-10T03:00:19;31.33;;;18.10;;
50291;SDS011;36190;54.980;73.388;2023-05-10T03:02:46;32.67;;;17.63;;
50291;SDS011;36190;54.980;73.388;2023-05-10T03:05:14;32.08;;;18.92;;
50291;SDS011;36190;54.980;73.388;2023-05-10T03:07:41;38.33;;;20.38;;
50291;SDS011;36190;54.980;73.388;2023-05-10T03:10:09;32.47;;;20.48;;
50291;SDS011;36190;54.980;73.388;2023-05-10T03:12:45;30.40;;;17.67;;
50291;SDS011;36190;54.980;73.388;2023-05-10T03:15:21;28.20;;;18.42;;
50291;SDS011;36190;54.980;73.388;2023-05-10T03:18:09;35.88;;;18.35;;
50291;SDS011;36190;54.980;73.388;2023-05-10T03:20:42;32.28;;;18.95;;
50291;SDS011;36190;54.980;73.388;2023-05-10T03:23:16;38.22;;;18.60;;
50291;SDS011;36190;54.980;73.388;2023-05-10T03:25:49;40.72;;;22.55;;
50291;SDS011;36190;54.980;73.388;2023-05-10T03:28:19;39.25;;;19.55;;
50291;SDS011;36190;54.980;73.388;2023-05-10T03:30:48;38.35;;;18.92;;
50291;SDS011;36190;54.980;73.388;2023-05-10T03:33:19;43.00;;;20.60;;
50291;SDS011;36190;54.980;73.388;2023-05-10T03:35:46;62.55;;;24.05;;
50291;SDS011;36190;54.980;73.388;2023-05-10T03:38:14;44.53;;;21.42;;
50291;SDS011;36190;54.980;73.388;2023-05-10T03:40:41;44.10;;;21.33;;
50291;SDS011;36190;54.980;73.388;2023-05-10T03:43:09;39.97;;;20.48;;
50291;SDS011;36190;54.980;73.388;2023-05-10T03:45:38;55.60;;;22.13;;
50291;SDS011;36190;54.980;73.388;2023-05-10T03:48:05;39.33;;;20.80;;
50291;SDS011;36190;54.980;73.388;2023-05-10T03:50:33;35.17;;;20.98;;
50291;SDS011;36190;54.980;73.388;2023-05-10T03:53:00;30.15;;;17.90;;
50291;SDS011;36190;54.980;73.388;2023-05-10T03:55:28;34.00;;;18.65;;
50291;SDS011;36190;54.980;73.388;2023-05-10T03:57:55;26.50;;;17.17;;
50291;SDS011;36190;54.980;73.388;2023-05-10T04:00:23;25.23;;;15.75;;
50291;SDS011;36190;54.980;73.388;2023-05-10T04:02:51;27.67;;;16.10;;
50291;SDS011;36190;54.980;73.388;2023-05-10T04:05:19;26.05;;;16.73;;
50291;SDS011;36190;54.980;73.388;2023-05-10T04:07:46;29.60;;;16.73;;
50291;SDS011;36190;54.980;73.388;2023-05-10T04:10:15;25.98;;;16.90;;
50291;SDS011;36190;54.980;73.388;2023-05-10T04:12:42;38.53;;;18.30;;
50291;SDS011;36190;54.980;73.388;2023-05-10T04:15:10;25.55;;;15.95;;
50291;SDS011;36190;54.980;73.388;2023-05-10T04:17:37;28.90;;;16.90;;
50291;SDS011;36190;54.980;73.388;2023-05-10T04:20:07;30.40;;;16.65;;
50291;SDS011;36190;54.980;73.388;2023-05-10T04:22:35;30.63;;;15.63;;
50291;SDS011;36190;54.980;73.388;2023-05-10T04:25:03;24.00;;;14.73;;
50291;SDS011;36190;54.980;73.388;2023-05-10T04:27:31;22.42;;;14.90;;
50291;SDS011;36190;54.980;73.388;2023-05-10T04:29:58;28.27;;;15.60;;
50291;SDS011;36190;54.980;73.388;2023-05-10T04:32:26;24.30;;;15.23;;
50291;SDS011;36190;54.980;73.388;2023-05-10T04:34:53;32.28;;;16.00;;
50291;SDS011;36190;54.980;73.388;2023-05-10T04:37:22;29.77;;;15.95;;
50291;SDS011;36190;54.980;73.388;2023-05-10T04:39:50;25.92;;;15.43;;
50291;SDS011;36190;54.980;73.388;2023-05-10T04:42:17;25.05;;;14.00;;
50291;SDS011;36190;54.980;73.388;2023-05-10T04:44:44;24.70;;;14.90;;
50291;SDS011;36190;54.980;73.388;2023-05-10T04:47:12;21.52;;;14.05;;
50291;SDS011;36190;54.980;73.388;2023-05-10T04:49:39;24.95;;;14.23;;
50291;SDS011;36190;54.980;73.388;2023-05-10T04:52:07;23.20;;;14.27;;
50291;SDS011;36190;54.980;73.388;2023-05-10T04:54:36;28.33;;;15.07;;
50291;SDS011;36190;54.980;73.388;2023-05-10T04:57:03;23.00;;;14.02;;
50291;SDS011;36190;54.980;73.388;2023-05-10T04:59:31;27.38;;;14.30;;
50291;SDS011;36190;54.980;73.388;2023-05-10T05:01:58;27.23;;;14.80;;
50291;SDS011;36190;54.980;73.388;2023-05-10T05:04:26;26.92;;;14.45;;
50291;SDS011;36190;54.980;73.388;2023-05-10T05:06:53;22.25;;;14.15;;
50291;SDS011;36190;54.980;73.388;2023-05-10T05:09:21;22.02;;;14.02;;
50291;SDS011;36190;54.980;73.388;2023-05-10T05:11:50;26.23;;;14.18;;
50291;SDS011;36190;54.980;73.388;2023-05-10T05:14:17;25.65;;;14.55;;
50291;SDS011;36190;54.980;73.388;2023-05-10T05:16:46;24.38;;;15.15;;
50291;SDS011;36190;54.980;73.388;2023-05-10T05:19:13;27.75;;;15.98;;
50291;SDS011;36190;54.980;73.388;2023-05-10T05:21:41;32.88;;;16.15;;
50291;SDS011;36190;54.980;73.388;2023-05-10T05:24:08;34.22;;;15.80;;
50291;SDS011;36190;54.980;73.388;2023-05-10T05:26:37;26.58;;;16.42;;
50291;SDS011;36190;54.980;73.388;2023-05-10T05:29:06;22.40;;;14.65;;
50291;SDS011;36190;54.980;73.388;2023-05-10T05:31:34;32.20;;;14.88;;
50291;SDS011;36190;54.980;73.388;2023-05-10T05:34:01;23.77;;;15.50;;
50291;SDS011;36190;54.980;73.388;2023-05-10T05:36:29;24.48;;;14.05;;
50291;SDS011;36190;54.980;73.388;2023-05-10T05:38:56;25.75;;;15.15;;
50291;SDS011;36190;54.980;73.388;2023-05-10T05:41:24;23.90;;;14.38;;
50291;SDS011;36190;54.980;73.388;2023-05-10T05:43:51;23.88;;;15.00;;
50291;SDS011;36190;54.980;73.388;2023-05-10T05:46:20;25.05;;;14.55;;
50291;SDS011;36190;54.980;73.388;2023-05-10T05:48:47;29.08;;;14.13;;
50291;SDS011;36190;54.980;73.388;2023-05-10T05:51:15;18.75;;;12.48;;
50291;SDS011;36190;54.980;73.388;2023-05-10T05:53:42;21.60;;;12.63;;
50291;SDS011;36190;54.980;73.388;2023-05-10T05:56:10;26.77;;;15.25;;
50291;SDS011;36190;54.980;73.388;2023-05-10T05:58:38;25.80;;;13.90;;
50291;SDS011;36190;54.980;73.388;2023-05-10T06:01:05;26.33;;;14.55;;
50291;SDS011;36190;54.980;73.388;2023-05-10T06:03:34;22.92;;;13.82;;
50291;SDS011;36190;54.980;73.388;2023-05-10T06:06:01;20.52;;;13.55;;
50291;SDS011;36190;54.980;73.388;2023-05-10T06:08:29;22.05;;;13.52;;
50291;SDS011;36190;54.980;73.388;2023-05-10T06:10:57;23.10;;;14.73;;
50291;SDS011;36190;54.980;73.388;2023-05-10T06:13:25;23.55;;;14.00;;
50291;SDS011;36190;54.980;73.388;2023-05-10T06:15:57;20.05;;;12.93;;
50291;SDS011;36190;54.980;73.388;2023-05-10T06:18:24;19.98;;;13.70;;
50291;SDS011;36190;54.980;73.388;2023-05-10T06:20:53;21.90;;;13.43;;
50291;SDS011;36190;54.980;73.388;2023-05-10T06:23:21;23.58;;;13.73;;
50291;SDS011;36190;54.980;73.388;2023-05-10T06:25:48;25.25;;;13.50;;
50291;SDS011;36190;54.980;73.388;2023-05-10T06:28:16;19.77;;;12.48;;
50291;SDS011;36190;54.980;73.388;2023-05-10T06:30:44;19.30;;;12.48;;
50291;SDS011;36190;54.980;73.388;2023-05-10T06:33:11;19.38;;;12.07;;
50291;SDS011;36190;54.980;73.388;2023-05-10T06:35:39;18.30;;;12.23;;
50291;SDS011;36190;54.980;73.388;2023-05-10T06:38:08;19.83;;;12.90;;
50291;SDS011;36190;54.980;73.388;2023-05-10T06:40:35;19.85;;;12.70;;
50291;SDS011;36190;54.980;73.388;2023-05-10T06:43:03;19.40;;;12.75;;
50291;SDS011;36190;54.980;73.388;2023-05-10T06:45:30;24.42;;;15.15;;
50291;SDS011;36190;54.980;73.388;2023-05-10T06:47:58;24.50;;;15.18;;
50291;SDS011;36190;54.980;73.388;2023-05-10T06:50:26;24.95;;;14.13;;
50291;SDS011;36190;54.980;73.388;2023-05-10T06:52:53;24.63;;;13.80;;
50291;SDS011;36190;54.980;73.388;2023-05-10T06:55:23;19.77;;;12.77;;
50291;SDS011;36190;54.980;73.388;2023-05-10T06:57:50;21.95;;;12.82;;
50291;SDS011;36190;54.980;73.388;2023-05-10T07:00:18;19.98;;;13.52;;
50291;SDS011;36190;54.980;73.388;2023-05-10T07:02:46;22.10;;;14.23;;
50291;SDS011;36190;54.980;73.388;2023-05-10T07:05:14;18.85;;;12.32;;
50291;SDS011;36190;54.980;73.388;2023-05-10T07:07:42;20.50;;;13.40;;
50291;SDS011;36190;54.980;73.388;2023-05-10T07:10:09;21.13;;;13.18;;
50291;SDS011;36190;54.980;73.388;2023-05-10T07:12:38;26.83;;;14.45;;
50291;SDS011;36190;54.980;73.388;2023-05-10T07:15:06;21.20;;;12.80;;
50291;SDS011;36190;54.980;73.388;2023-05-10T07:17:35;21.52;;;13.02;;
50291;SDS011;36190;54.980;73.388;2023-05-10T07:20:02;24.40;;;12.82;;
50291;SDS011;36190;54.980;73.388;2023-05-10T07:22:30;21.23;;;12.50;;
50291;SDS011;36190;54.980;73.388;2023-05-10T07:24:58;23.95;;;13.88;;
50291;SDS011;36190;54.980;73.388;2023-05-10T07:27:25;20.17;;;13.45;;
50291;SDS011;36190;54.980;73.388;2023-05-10T07:29:54;19.00;;;12.15;;
50291;SDS011;36190;54.980;73.388;2023-05-10T07:32:22;22.15;;;12.75;;
50291;SDS011;36190;54.980;73.388;2023-05-10T07:34:49;19.35;;;13.30;;
50291;SDS011;36190;54.980;73.388;2023-05-10T07:37:16;21.00;;;14.15;;
50291;SDS011;36190;54.980;73.388;2023-05-10T07:39:44;23.38;;;13.93;;
50291;SDS011;36190;54.980;73.388;2023-05-10T07:42:11;22.08;;;14.02;;
50291;SDS011;36190;54.980;73.388;2023-05-10T07:44:39;24.58;;;14.35;;
50291;SDS011;36190;54.980;73.388;2023-05-10T07:47:08;23.92;;;14.38;;
50291;SDS011;36190;54.980;73.388;2023-05-10T07:49:36;20.13;;;12.60;;
50291;SDS011;36190;54.980;73.388;2023-05-10T07:52:03;19.95;;;13.00;;
50291;SDS011;36190;54.980;73.388;2023-05-10T07:54:31;21.48;;;13.38;;
50291;SDS011;36190;54.980;73.388;2023-05-10T07:56:59;22.27;;;13.63;;
50291;SDS011;36190;54.980;73.388;2023-05-10T07:59:27;21.48;;;12.93;;
50291;SDS011;36190;54.980;73.388;2023-05-10T08:01:54;22.27;;;13.30;;
50291;SDS011;36190;54.980;73.388;2023-05-10T08:04:23;20.73;;;13.32;;
50291;SDS011;36190;54.980;73.388;2023-05-10T08:06:51;19.27;;;12.65;;
50291;SDS011;36190;54.980;73.388;2023-05-10T08:09:18;34.75;;;15.40;;
50291;SDS011;36190;54.980;73.388;2023-05-10T08:11:49;27.42;;;13.73;;
50291;SDS011;36190;54.980;73.388;2023-05-10T08:14:16;24.65;;;12.20;;
50291;SDS011;36190;54.980;73.388;2023-05-10T08:16:43;20.95;;;11.88;;
50291;SDS011;36190;54.980;73.388;2023-05-10T08:19:11;19.83;;;11.43;;
50291;SDS011;36190;54.980;73.388;2023-05-10T08:21:40;16.27;;;10.75;;
50291;SDS011;36190;54.980;73.388;2023-05-10T08:24:08;17.80;;;11.48;;
50291;SDS011;36190;54.980;73.388;2023-05-10T08:26:35;15.75;;;11.27;;
50291;SDS011;36190;54.980;73.388;2023-05-10T08:29:02;20.13;;;13.68;;
50291;SDS011;36190;54.980;73.388;2023-05-10T08:31:30;20.90;;;11.70;;
50291;SDS011;36190;54.980;73.388;2023-05-10T08:33:58;17.27;;;10.60;;
50291;SDS011;36190;54.980;73.388;2023-05-10T08:36:25;20.13;;;10.68;;
50291;SDS011;36190;54.980;73.388;2023-05-10T08:38:55;23.13;;;11.55;;
50291;SDS011;36190;54.980;73.388;2023-05-10T08:41:22;20.50;;;11.38;;
50291;SDS011;36190;54.980;73.388;2023-05-10T08:43:51;23.90;;;11.32;;
50291;SDS011;36190;54.980;73.388;2023-05-10T08:46:19;24.52;;;11.45;;
50291;SDS011;36190;54.980;73.388;2023-05-10T08:48:49;14.82;;;10.13;;
50291;SDS011;36190;54.980;73.388;2023-05-10T08:51:18;19.35;;;10.00;;
50291;SDS011;36190;54.980;73.388;2023-05-10T08:53:49;17.98;;;10.70;;
50291;SDS011;36190;54.980;73.388;2023-05-10T08:56:18;18.55;;;11.65;;
50291;SDS011;36190;54.980;73.388;2023-05-10T08:58:46;15.07;;;9.93;;
50291;SDS011;36190;54.980;73.388;2023-05-10T09:01:15;15.38;;;10.18;;
50291;SDS011;36190;54.980;73.388;2023-05-10T09:03:43;15.75;;;10.15;;
50291;SDS011;36190;54.980;73.388;2023-05-10T09:06:13;18.52;;;10.38;;
50291;SDS011;36190;54.980;73.388;2023-05-10T09:08:41;19.17;;;9.80;;
50291;SDS011;36190;54.980;73.388;2023-05-10T09:11:09;16.50;;;10.25;;
50291;SDS011;36190;54.980;73.388;2023-05-10T09:13:40;17.42;;;11.00;;
50291;SDS011;36190;54.980;73.388;2023-05-10T09:16:08;19.13;;;11.07;;
50291;SDS011;36190;54.980;73.388;2023-05-10T09:18:36;15.32;;;9.80;;
50291;SDS011;36190;54.980;73.388;2023-05-10T09:21:04;17.23;;;10.02;;
50291;SDS011;36190;54.980;73.388;2023-05-10T09:23:31;24.73;;;11.73;;
50291;SDS011;36190;54.980;73.388;2023-05-10T09:26:02;16.63;;;10.07;;
50291;SDS011;36190;54.980;73.388;2023-05-10T09:28:31;16.15;;;9.80;;
50291;SDS011;36190;54.980;73.388;2023-05-10T09:31:00;15.98;;;9.50;;
50291;SDS011;36190;54.980;73.388;2023-05-10T09:33:28;18.42;;;10.10;;
50291;SDS011;36190;54.980;73.388;2023-05-10T09:35:55;15.93;;;9.73;;
50291;SDS011;36190;54.980;73.388;2023-05-10T09:38:44;14.57;;;9.00;;
50291;SDS011;36190;54.980;73.388;2023-05-10T09:41:16;18.55;;;8.93;;
50291;SDS011;36190;54.980;73.388;2023-05-10T09:43:45;22.50;;;8.63;;
50291;SDS011;36190;54.980;73.388;2023-05-10T09:46:14;16.00;;;8.40;;
50291;SDS011;36190;54.980;73.388;2023-05-10T09:48:43;17.80;;;8.52;;
50291;SDS011;36190;54.980;73.388;2023-05-10T09:51:18;17.48;;;8.93;;
50291;SDS011;36190;54.980;73.388;2023-05-10T09:53:46;19.25;;;9.07;;
50291;SDS011;36190;54.980;73.388;2023-05-10T09:59:03;14.27;;;8.48;;
50291;SDS011;36190;54.980;73.388;2023-05-10T10:01:33;16.85;;;8.45;;
50291;SDS011;36190;54.980;73.388;2023-05-10T10:04:02;16.33;;;8.27;;
50291;SDS011;36190;54.980;73.388;2023-05-10T10:06:35;13.18;;;8.63;;
50291;SDS011;36190;54.980;73.388;2023-05-10T10:09:03;16.73;;;9.02;;
50291;SDS011;36190;54.980;73.388;2023-05-10T10:11:31;13.75;;;8.18;;
50291;SDS011;36190;54.980;73.388;2023-05-10T10:14:00;17.13;;;9.75;;
50291;SDS011;36190;54.980;73.388;2023-05-10T10:16:28;16.98;;;8.80;;
50291;SDS011;36190;54.980;73.388;2023-05-10T10:18:58;17.15;;;9.45;;
50291;SDS011;36190;54.980;73.388;2023-05-10T10:21:25;18.40;;;9.18;;
50291;SDS011;36190;54.980;73.388;2023-05-10T10:23:53;13.70;;;8.20;;
50291;SDS011;36190;54.980;73.388;2023-05-10T10:26:21;14.95;;;8.63;;
50291;SDS011;36190;54.980;73.388;2023-05-10T10:28:51;16.02;;;9.00;;
50291;SDS011;36190;54.980;73.388;2023-05-10T10:31:31;19.92;;;9.00;;
50291;SDS011;36190;54.980;73.388;2023-05-10T10:34:06;18.48;;;8.80;;
50291;SDS011;36190;54.980;73.388;2023-05-10T10:36:42;15.35;;;8.77;;
50291;SDS011;36190;54.980;73.388;2023-05-10T10:39:12;15.95;;;9.18;;
50291;SDS011;36190;54.980;73.388;2023-05-10T10:41:40;16.38;;;8.43;;
50291;SDS011;36190;54.980;73.388;2023-05-10T10:47:05;16.20;;;8.38;;
50291;SDS011;36190;54.980;73.388;2023-05-10T10:49:48;14.68;;;8.60;;
50291;SDS011;36190;54.980;73.388;2023-05-10T10:52:24;15.57;;;10.93;;
50291;SDS011;36190;54.980;73.388;2023-05-10T10:54:58;20.67;;;8.70;;
50291;SDS011;36190;54.980;73.388;2023-05-10T10:57:27;19.05;;;9.05;;
50291;SDS011;36190;54.980;73.388;2023-05-10T11:02:55;15.25;;;8.70;;
50291;SDS011;36190;54.980;73.388;2023-05-10T11:08:18;21.08;;;8.27;;
50291;SDS011;36190;54.980;73.388;2023-05-10T11:13:39;17.25;;;7.97;;
50291;SDS011;36190;54.980;73.388;2023-05-10T11:16:10;15.57;;;8.35;;
50291;SDS011;36190;54.980;73.388;2023-05-10T11:18:53;16.50;;;8.18;;
50291;SDS011;36190;54.980;73.388;2023-05-10T11:21:25;15.02;;;7.97;;
50291;SDS011;36190;54.980;73.388;2023-05-10T11:23:53;17.73;;;8.75;;
50291;SDS011;36190;54.980;73.388;2023-05-10T11:26:22;15.93;;;8.27;;
50291;SDS011;36190;54.980;73.388;2023-05-10T11:28:51;14.80;;;7.95;;
50291;SDS011;36190;54.980;73.388;2023-05-10T11:31:21;15.73;;;8.00;;
50291;SDS011;36190;54.980;73.388;2023-05-10T11:33:52;14.30;;;7.93;;
50291;SDS011;36190;54.980;73.388;2023-05-10T11:36:21;17.88;;;7.95;;
50291;SDS011;36190;54.980;73.388;2023-05-10T11:38:53;15.73;;;8.25;;
50291;SDS011;36190;54.980;73.388;2023-05-10T11:41:22;19.83;;;8.30;;
50291;SDS011;36190;54.980;73.388;2023-05-10T11:43:50;16.38;;;8.77;;
50291;SDS011;36190;54.980;73.388;2023-05-10T11:46:19;17.77;;;8.05;;
50291;SDS011;36190;54.980;73.388;2023-05-10T11:48:49;12.40;;;6.30;;
50291;SDS011;36190;54.980;73.388;2023-05-10T11:51:20;13.93;;;7.47;;
50291;SDS011;36190;54.980;73.388;2023-05-10T11:53:48;11.65;;;6.60;;
50291;SDS011;36190;54.980;73.388;2023-05-10T11:56:18;14.95;;;7.30;;
50291;SDS011;36190;54.980;73.388;2023-05-10T11:58:51;10.60;;;6.40;;
50291;SDS011;36190;54.980;73.388;2023-05-10T12:01:20;14.27;;;6.75;;
50291;SDS011;36190;54.980;73.388;2023-05-10T12:03:49;13.23;;;6.40;;
50291;SDS011;36190;54.980;73.388;2023-05-10T12:06:18;12.27;;;6.70;;
50291;SDS011;36190;54.980;73.388;2023-05-10T12:08:46;14.90;;;6.60;;
50291;SDS011;36190;54.980;73.388;2023-05-10T12:11:19;13.07;;;6.38;;
50291;SDS011;36190;54.980;73.388;2023-05-10T12:13:48;12.45;;;6.75;;
50291;SDS011;36190;54.980;73.388;2023-05-10T12:16:16;12.50;;;6.50;;
50291;SDS011;36190;54.980;73.388;2023-05-10T12:18:44;15.13;;;7.70;;
50291;SDS011;36190;54.980;73.388;2023-05-10T12:21:14;13.85;;;8.20;;
50291;SDS011;36190;54.980;73.388;2023-05-10T12:23:42;22.85;;;9.77;;
50291;SDS011;36190;54.980;73.388;2023-05-10T12:26:11;17.02;;;7.50;;
50291;SDS011;36190;54.980;73.388;2023-05-10T12:28:41;13.88;;;6.55;;
50291;SDS011;36190;54.980;73.388;2023-05-10T12:31:08;20.30;;;12.60;;
50291;SDS011;36190;54.980;73.388;2023-05-10T12:33:36;19.98;;;10.02;;
50291;SDS011;36190;54.980;73.388;2023-05-10T12:36:07;19.02;;;7.75;;
50291;SDS011;36190;54.980;73.388;2023-05-10T12:38:35;18.33;;;9.35;;
50291;SDS011;36190;54.980;73.388;2023-05-10T12:41:04;12.02;;;6.35;;
50291;SDS011;36190;54.980;73.388;2023-05-10T12:43:32;27.10;;;10.45;;
50291;SDS011;36190;54.980;73.388;2023-05-10T12:46:06;32.28;;;19.00;;
50291;SDS011;36190;54.980;73.388;2023-05-10T12:48:34;210.70;;;105.57;;
50291;SDS011;36190;54.980;73.388;2023-05-10T12:51:02;130.00;;;68.03;;
50291;SDS011;36190;54.980;73.388;2023-05-10T12:53:30;53.83;;;31.48;;
50291;SDS011;36190;54.980;73.388;2023-05-10T12:55:58;38.70;;;30.55;;
50291;SDS011;36190;54.980;73.388;2023-05-10T12:58:27;31.50;;;13.77;;
50291;SDS011;36190;54.980;73.388;2023-05-10T13:00:55;27.67;;;9.30;;
50291;SDS011;36190;54.980;73.388;2023-05-10T13:03:24;18.90;;;7.40;;
50291;SDS011;36190;54.980;73.388;2023-05-10T13:05:51;18.02;;;7.10;;
50291;SDS011;36190;54.980;73.388;2023-05-10T13:08:19;15.50;;;7.00;;
50291;SDS011;36190;54.980;73.388;2023-05-10T13:10:46;13.27;;;6.10;;
50291;SDS011;36190;54.980;73.388;2023-05-10T13:13:14;12.15;;;6.22;;
50291;SDS011;36190;54.980;73.388;2023-05-10T13:15:43;11.93;;;6.20;;
50291;SDS011;36190;54.980;73.388;2023-05-10T13:18:10;15.75;;;6.15;;
50291;SDS011;36190;54.980;73.388;2023-05-10T13:20:40;14.48;;;5.93;;
50291;SDS011;36190;54.980;73.388;2023-05-10T13:23:09;17.08;;;7.93;;
50291;SDS011;36190;54.980;73.388;2023-05-10T13:25:36;20.33;;;7.68;;
50291;SDS011;36190;54.980;73.388;2023-05-10T13:28:04;12.50;;;5.97;;
50291;SDS011;36190;54.980;73.388;2023-05-10T13:30:31;13.65;;;6.10;;
50291;SDS011;36190;54.980;73.388;2023-05-10T13:32:59;17.63;;;6.63;;
50291;SDS011;36190;54.980;73.388;2023-05-10T13:35:26;17.15;;;8.60;;
50291;SDS011;36190;54.980;73.388;2023-05-10T13:37:55;21.80;;;8.65;;
50291;SDS011;36190;54.980;73.388;2023-05-10T13:40:23;19.65;;;8.32;;
50291;SDS011;36190;54.980;73.388;2023-05-10T13:42:50;15.52;;;6.57;;
50291;SDS011;36190;54.980;73.388;2023-05-10T13:45:18;18.98;;;6.95;;
50291;SDS011;36190;54.980;73.388;2023-05-10T13:47:46;16.05;;;6.45;;
50291;SDS011;36190;54.980;73.388;2023-05-10T13:50:13;11.15;;;6.78;;
50291;SDS011;36190;54.980;73.388;2023-05-10T13:52:41;20.83;;;7.07;;
50291;SDS011;36190;54.980;73.388;2023-05-10T13:55:10;15.10;;;6.68;;
50291;SDS011;36190;54.980;73.388;2023-05-10T13:57:38;18.42;;;6.20;;
50291;SDS011;36190;54.980;73.388;2023-05-10T14:00:06;17.92;;;8.25;;
50291;SDS011;36190;54.980;73.388;2023-05-10T14:02:34;25.65;;;19.42;;
50291;SDS011;36190;54.980;73.388;2023-05-10T14:05:02;20.48;;;11.68;;
50291;SDS011;36190;54.980;73.388;2023-05-10T14:07:30;30.13;;;9.68;;
50291;SDS011;36190;54.980;73.388;2023-05-10T14:09:57;21.25;;;11.63;;
50291;SDS011;36190;54.980;73.388;2023-05-10T14:12:26;22.45;;;10.93;;
50291;SDS011;36190;54.980;73.388;2023-05-10T14:14:54;19.73;;;10.43;;
50291;SDS011;36190;54.980;73.388;2023-05-10T14:17:21;20.02;;;12.23;;
50291;SDS011;36190;54.980;73.388;2023-05-10T14:19:49;22.65;;;15.45;;
50291;SDS011;36190;54.980;73.388;2023-05-10T14:22:16;31.35;;;16.73;;
50291;SDS011;36190;54.980;73.388;2023-05-10T14:24:44;25.75;;;14.32;;
50291;SDS011;36190;54.980;73.388;2023-05-10T14:27:12;28.23;;;13.60;;
50291;SDS011;36190;54.980;73.388;2023-05-10T14:29:41;27.58;;;13.30;;
50291;SDS011;36190;54.980;73.388;2023-05-10T14:32:09;30.42;;;14.80;;
50291;SDS011;36190;54.980;73.388;2023-05-10T14:34:36;33.90;;;15.18;;
50291;SDS011;36190;54.980;73.388;2023-05-10T14:37:04;33.00;;;13.43;;
50291;SDS011;36190;54.980;73.388;2023-05-10T14:39:31;34.55;;;12.57;;
50291;SDS011;36190;54.980;73.388;2023-05-10T14:41:59;28.45;;;12.02;;
50291;SDS011;36190;54.980;73.388;2023-05-10T14:44:27;32.75;;;11.77;;